| Date | Time | Temp. (oF) | Dew Point (oF) | Rel. Hum. (%) | Press. (in.) | Wind Dir. | Wind Speed (mph) | Hourly Rainfall (in.) |
|
|---|---|---|---|---|---|---|---|---|---|
| 1 | 05/09 | 00:00 | 68 | 58 | 73 | 29.74 | SE | 4 | 0.00 |
| 2 | 05/08 | 23:00 | 68 | 57 | 70 | 29.77 | SSW | 2 | 0.00 |
| 3 | 05/08 | 22:00 | 69 | 57 | 67 | 29.79 | SW | 5 | 0.00 |
| 4 | 05/08 | 21:00 | 69 | 57 | 66 | 29.77 | S | 5 | 0.00 |
| 5 | 05/08 | 20:00 | 71 | 58 | 64 | 29.76 | S | 2 | 0.00 |
| 6 | 05/08 | 19:00 | 73 | 57 | 59 | 29.77 | SSW | 13 | 0.00 |
| 7 | 05/08 | 18:00 | 75 | 57 | 55 | 29.77 | SSW | 6 | 0.00 |
| 8 | 05/08 | 17:00 | 76 | 57 | 53 | 29.76 | SW | 6 | 0.00 |
| 9 | 05/08 | 16:00 | 77 | 57 | 52 | 29.77 | S | 7 | 0.00 |
| 10 | 05/08 | 15:00 | 78 | 55 | 46 | 29.80 | SSW | 7 | 0.00 |
| 11 | 05/08 | 14:00 | 79 | 60 | 53 | 29.81 | S | 3 | 0.00 |
| 12 | 05/08 | 13:00 | 76 | 57 | 53 | 29.83 | W | 3 | 0.00 |
| 13 | 05/08 | 12:00 | 75 | 59 | 59 | 29.82 | SSE | 3 | 0.00 |
| 14 | 05/08 | 11:00 | 70 | 60 | 71 | 29.84 | SW | 6 | 0.00 |
| 15 | 05/08 | 10:00 | 66 | 59 | 81 | 29.86 | S | 4 | 0.00 |
| 16 | 05/08 | 09:00 | 61 | 59 | 95 | 29.86 | ESE | 0 | 0.00 |
| 17 | 05/08 | 08:00 | 57 | 57 | 100 | 29.87 | ESE | 0 | 0.00 |
| 18 | 05/08 | 07:00 | 51 | 50 | 100 | 29.86 | NNE | 0 | 0.00 |
| 19 | 05/08 | 06:00 | 51 | 50 | 100 | 29.83 | NNW | 0 | 0.00 |
| 20 | 05/08 | 05:00 | 51 | 50 | 99 | 29.82 | NNW | 0 | 0.00 |
| 21 | 05/08 | 04:00 | 52 | 51 | 98 | 29.83 | NNW | 0 | 0.00 |
| 22 | 05/08 | 03:00 | 54 | 53 | 97 | 29.83 | NNW | 1 | 0.00 |
| 23 | 05/08 | 02:00 | 55 | 53 | 96 | 29.83 | W | 0 | 0.00 |
| 24 | 05/08 | 01:00 | 56 | 54 | 93 | 29.83 | WSW | 0 | 0.00 |